Time;durP1;ratioP1;P1;durP2;ratioP2;P2;SDS_P1;SDS_P2;PMS_P1;PMS_P2;Temp;Humidity;BMP_temperature;BMP_pressure;BME280_temperature;BME280_humidity;BME280_pressure;Samples;Min_cycle;Max_cycle;Signal;HPM_P1;HPM_P2
2022/06/19 00:01:57;;;;;;;6.45;1.30;;;;;;;;;;7389023;19;20141;-77
2022/06/19 00:04:23;;;;;;;9.40;1.30;;;;;;;;;;7388625;19;20019;-77
2022/06/19 00:06:48;;;;;;;2.35;1.15;;;;;;;;;;7387749;19;20115;-77
2022/06/19 00:09:14;;;;;;;2.45;1.20;;;;;;;;;;7389148;19;20025;-77
2022/06/19 00:11:39;;;;;;;2.72;1.30;;;;;;;;;;7386781;19;20370;-77
2022/06/19 00:14:05;;;;;;;1.65;1.10;;;;;;;;;;7388447;19;20010;-77
2022/06/19 00:16:31;;;;;;;7.35;1.17;;;;;;;;;;7387789;19;20007;-77
2022/06/19 00:18:56;;;;;;;2.08;1.10;;;;;;;;;;7388223;19;20019;-77
2022/06/19 00:21:22;;;;;;;4.57;1.20;;;;;;;;;;7388333;19;20438;-77
2022/06/19 00:23:47;;;;;;;2.03;1.00;;;;;;;;;;7389921;19;20121;-76
2022/06/19 00:26:13;;;;;;;2.63;1.20;;;;;;;;;;7387070;19;20002;-77
2022/06/19 00:28:40;;;;;;;1.45;1.05;;;;;;;;;;7390018;19;20403;-77
2022/06/19 00:31:06;;;;;;;1.67;0.98;;;;;;;;;;7389041;19;20032;-77
2022/06/19 00:33:32;;;;;;;2.13;1.10;;;;;;;;;;7391710;19;20003;-77
2022/06/19 00:35:57;;;;;;;1.63;0.98;;;;;;;;;;7391257;19;20013;-77
2022/06/19 00:38:22;;;;;;;4.40;1.35;;;;;;;;;;7390120;19;20006;-77
2022/06/19 00:40:48;;;;;;;1.63;1.08;;;;;;;;;;7391751;19;20006;-77
2022/06/19 00:43:13;;;;;;;8.95;1.40;;;;;;;;;;7386441;19;20375;-77
2022/06/19 00:45:42;;;;;;;1.65;0.90;;;;;;;;;;7389598;19;20010;-77
2022/06/19 00:48:14;;;;;;;6.07;1.08;;;;;;;;;;7387617;19;20385;-78
2022/06/19 00:50:40;;;;;;;5.68;1.20;;;;;;;;;;7391470;19;20038;-77
2022/06/19 00:53:09;;;;;;;2.55;1.15;;;;;;;;;;7388096;19;20011;-77
2022/06/19 00:55:41;;;;;;;4.22;1.17;;;;;;;;;;7389637;19;20098;-77
2022/06/19 00:58:25;;;;;;;2.53;0.90;;;;;;;;;;7388758;19;20003;-77
2022/06/19 01:00:55;;;;;;;1.63;1.08;;;;;;;;;;7389229;19;20010;-77
2022/06/19 01:03:25;;;;;;;2.38;1.00;;;;;;;;;;7396641;19;20015;-77
2022/06/19 01:05:50;;;;;;;3.10;1.27;;;;;;;;;;7395702;19;20034;-77
2022/06/19 01:08:16;;;;;;;1.25;0.98;;;;;;;;;;7395515;19;20010;-77
2022/06/19 01:10:44;;;;;;;3.10;1.05;;;;;;;;;;7394896;19;20024;-76
2022/06/19 01:13:11;;;;;;;1.38;0.90;;;;;;;;;;7395309;19;20481;-77
2022/06/19 01:15:38;;;;;;;0.80;0.80;;;;;;;;;;7395657;19;20081;-77
2022/06/19 01:18:06;;;;;;;5.57;0.93;;;;;;;;;;7393623;19;20086;-77
2022/06/19 01:20:33;;;;;;;3.10;1.15;;;;;;;;;;7395602;19;20018;-77
2022/06/19 01:23:47;;;;;;;1.30;1.02;;;;;;;;;;7392734;19;20465;-76
2022/06/19 01:26:14;;;;;;;1.05;0.63;;;;;;;;;;7394125;19;20066;-77
2022/06/19 01:28:54;;;;;;;3.30;1.23;;;;;;;;;;7397993;19;20006;-77
2022/06/19 01:31:24;;;;;;;3.55;1.08;;;;;;;;;;7393878;19;20012;-77
2022/06/19 01:34:26;;;;;;;1.65;0.80;;;;;;;;;;7396220;19;20013;-77
2022/06/19 01:37:10;;;;;;;7.47;1.52;;;;;;;;;;7393266;19;20011;-77
2022/06/19 01:39:42;;;;;;;2.30;0.85;;;;;;;;;;7397266;19;20054;-77
2022/06/19 01:42:08;;;;;;;1.83;1.00;;;;;;;;;;7390393;19;20370;-76
2022/06/19 01:44:35;;;;;;;2.33;1.10;;;;;;;;;;7394313;19;20002;-76
2022/06/19 01:47:02;;;;;;;4.38;1.30;;;;;;;;;;7393337;19;20469;-77
2022/06/19 01:49:30;;;;;;;1.25;1.00;;;;;;;;;;7390981;19;20022;-77
2022/06/19 01:51:55;;;;;;;2.08;0.98;;;;;;;;;;7393208;19;20074;-77
2022/06/19 01:54:26;;;;;;;1.15;0.80;;;;;;;;;;7391301;19;20010;-77
2022/06/19 01:56:53;;;;;;;3.03;1.10;;;;;;;;;;7396713;19;20473;-77
2022/06/19 01:59:21;;;;;;;2.53;1.15;;;;;;;;;;7390095;19;20010;-76
2022/06/19 02:01:47;;;;;;;3.08;0.90;;;;;;;;;;7393906;19;20070;-77
2022/06/19 02:04:12;;;;;;;5.00;0.88;;;;;;;;;;7390319;19;20031;-77
2022/06/19 02:06:41;;;;;;;3.60;0.93;;;;;;;;;;7393153;19;20026;-76
2022/06/19 02:09:08;;;;;;;3.03;0.90;;;;;;;;;;7391888;19;20024;-77
2022/06/19 02:11:34;;;;;;;2.38;0.90;;;;;;;;;;7395001;19;20013;-77
2022/06/19 02:14:02;;;;;;;1.33;0.90;;;;;;;;;;7391459;19;20006;-77
2022/06/19 02:16:28;;;;;;;1.00;0.95;;;;;;;;;;7393232;19;20006;-77
2022/06/19 02:18:54;;;;;;;2.33;0.98;;;;;;;;;;7393025;19;20007;-77
2022/06/19 02:21:34;;;;;;;4.97;1.10;;;;;;;;;;7393743;19;20006;-76
2022/06/19 02:23:59;;;;;;;1.65;0.93;;;;;;;;;;7394839;19;20021;-77
2022/06/19 02:26:24;;;;;;;1.58;0.85;;;;;;;;;;7391643;19;20334;-77
2022/06/19 02:28:50;;;;;;;3.15;0.95;;;;;;;;;;7390505;19;20010;-76
2022/06/19 02:31:18;;;;;;;2.10;0.95;;;;;;;;;;7391005;19;20077;-76
2022/06/19 02:34:06;;;;;;;2.63;0.70;;;;;;;;;;7393752;19;20018;-77
2022/06/19 02:36:39;;;;;;;2.22;1.02;;;;;;;;;;7394494;19;20010;-76
2022/06/19 02:39:39;;;;;;;7.70;1.35;;;;;;;;;;7392805;19;20010;-77
2022/06/19 02:42:20;;;;;;;1.50;0.80;;;;;;;;;;7390045;19;20403;-76
2022/06/19 02:44:50;;;;;;;4.88;1.20;;;;;;;;;;7392336;19;20324;-77
2022/06/19 02:47:15;;;;;;;4.75;1.13;;;;;;;;;;7393425;19;20438;-77
2022/06/19 02:49:41;;;;;;;6.05;1.30;;;;;;;;;;7390650;19;20010;-76
2022/06/19 02:52:09;;;;;;;3.40;0.75;;;;;;;;;;7391249;19;20011;-76
2022/06/19 02:54:34;;;;;;;4.57;1.10;;;;;;;;;;7391501;19;20017;-76
2022/06/19 02:57:01;;;;;;;2.45;1.20;;;;;;;;;;7389301;19;20002;-76
2022/06/19 02:59:26;;;;;;;1.48;0.73;;;;;;;;;;7391876;19;20011;-77
2022/06/19 03:01:51;;;;;;;3.47;1.30;;;;;;;;;;7390211;19;20018;-77
2022/06/19 03:04:21;;;;;;;3.72;0.98;;;;;;;;;;7389945;19;20346;-77
2022/06/19 03:06:46;;;;;;;3.13;1.00;;;;;;;;;;7389582;19;20011;-77
2022/06/19 03:09:12;;;;;;;2.45;1.00;;;;;;;;;;7391794;19;20018;-77
2022/06/19 03:11:38;;;;;;;5.40;1.13;;;;;;;;;;7389823;19;19999;-76
2022/06/19 03:14:03;;;;;;;3.28;1.00;;;;;;;;;;7392203;19;20375;-77
2022/06/19 03:16:31;;;;;;;0.77;0.77;;;;;;;;;;7387893;19;20031;-76
2022/06/19 03:18:58;;;;;;;2.72;1.08;;;;;;;;;;7390748;19;20010;-76
2022/06/19 03:21:23;;;;;;;1.98;1.30;;;;;;;;;;7391426;19;20007;-77
2022/06/19 03:23:49;;;;;;;4.13;1.20;;;;;;;;;;7393636;19;20031;-76
2022/06/19 03:26:14;;;;;;;3.25;1.40;;;;;;;;;;7388843;19;20002;-76
2022/06/19 03:28:40;;;;;;;3.20;1.17;;;;;;;;;;7391000;19;20003;-77
2022/06/19 03:31:05;;;;;;;4.72;1.25;;;;;;;;;;7388746;19;20006;-76
2022/06/19 03:33:30;;;;;;;3.42;1.10;;;;;;;;;;7390277;19;20011;-77
2022/06/19 03:35:56;;;;;;;2.05;0.95;;;;;;;;;;7390812;19;20480;-77
2022/06/19 03:38:21;;;;;;;5.25;1.60;;;;;;;;;;7390484;19;20347;-77
2022/06/19 03:40:46;;;;;;;2.80;1.20;;;;;;;;;;7391416;19;20322;-76
2022/06/19 03:43:12;;;;;;;2.00;0.93;;;;;;;;;;7390308;19;20489;-76
2022/06/19 03:45:38;;;;;;;2.53;1.30;;;;;;;;;;7389411;19;20367;-77
2022/06/19 03:48:04;;;;;;;6.20;1.35;;;;;;;;;;7388927;19;20359;-76
2022/06/19 03:50:29;;;;;;;2.63;1.05;;;;;;;;;;7389449;19;20465;-76
2022/06/19 03:52:54;;;;;;;2.25;1.10;;;;;;;;;;7388922;19;20030;-76
2022/06/19 03:55:20;;;;;;;5.13;1.30;;;;;;;;;;7391242;19;20347;-77
2022/06/19 03:57:45;;;;;;;2.15;0.98;;;;;;;;;;7389508;19;20037;-77
2022/06/19 04:00:15;;;;;;;2.45;0.98;;;;;;;;;;7390914;19;19999;-76
2022/06/19 04:02:41;;;;;;;2.90;0.90;;;;;;;;;;7387201;19;20504;-77
2022/06/19 04:05:07;;;;;;;5.40;1.02;;;;;;;;;;7389934;19;20047;-76
2022/06/19 04:07:32;;;;;;;7.35;1.55;;;;;;;;;;7388364;19;20035;-77
2022/06/19 04:09:59;;;;;;;3.35;1.40;;;;;;;;;;7391309;19;20006;-77
2022/06/19 04:12:24;;;;;;;3.15;0.98;;;;;;;;;;7386746;19;20013;-76
2022/06/19 04:14:51;;;;;;;4.68;2.00;;;;;;;;;;7389353;19;20011;-77
2022/06/19 04:17:16;;;;;;;2.53;1.20;;;;;;;;;;7386799;19;20062;-76
2022/06/19 04:19:41;;;;;;;6.82;1.73;;;;;;;;;;7388088;19;20011;-77
2022/06/19 04:22:07;;;;;;;7.72;1.40;;;;;;;;;;7388802;19;20030;-77
2022/06/19 04:24:32;;;;;;;4.00;1.42;;;;;;;;;;7390826;19;20428;-77
2022/06/19 04:26:57;;;;;;;3.58;0.80;;;;;;;;;;7388265;19;20007;-77
2022/06/19 04:29:23;;;;;;;2.35;0.95;;;;;;;;;;7389484;19;20006;-77
2022/06/19 04:31:48;;;;;;;7.05;1.33;;;;;;;;;;7387838;19;20013;-77
2022/06/19 04:34:14;;;;;;;3.85;1.20;;;;;;;;;;7388876;19;20017;-76
2022/06/19 04:36:39;;;;;;;5.97;1.33;;;;;;;;;;7387866;19;20010;-76
2022/06/19 04:39:05;;;;;;;4.13;1.00;;;;;;;;;;7396951;19;20318;-76
2022/06/19 04:41:36;;;;;;;5.10;1.42;;;;;;;;;;7395128;19;20006;-76
2022/06/19 04:44:02;;;;;;;2.47;1.42;;;;;;;;;;7397477;19;20010;-77
2022/06/19 04:46:27;;;;;;;1.80;1.00;;;;;;;;;;7393903;19;19998;-76
2022/06/19 04:48:53;;;;;;;6.90;1.73;;;;;;;;;;7396296;19;20107;-77
2022/06/19 04:51:18;;;;;;;4.22;1.58;;;;;;;;;;7394781;19;20017;-77
2022/06/19 04:53:44;;;;;;;4.40;2.05;;;;;;;;;;7396986;19;20014;-77
2022/06/19 04:56:12;;;;;;;4.00;1.80;;;;;;;;;;7394096;19;20011;-76
2022/06/19 04:58:37;;;;;;;5.88;2.30;;;;;;;;;;7396145;19;20078;-77
2022/06/19 05:01:12;;;;;;;7.20;2.15;;;;;;;;;;7392747;19;20015;-77
2022/06/19 05:03:38;;;;;;;3.75;1.80;;;;;;;;;;7387129;19;20067;-77
2022/06/19 05:06:04;;;;;;;5.70;2.13;;;;;;;;;;7392519;19;20032;-76
2022/06/19 05:08:29;;;;;;;8.73;1.65;;;;;;;;;;7394806;19;20029;-76
2022/06/19 05:10:55;;;;;;;4.88;1.40;;;;;;;;;;7392028;19;20038;-77
2022/06/19 05:13:22;;;;;;;4.05;1.38;;;;;;;;;;7390972;19;20457;-76
2022/06/19 05:15:48;;;;;;;4.20;1.42;;;;;;;;;;7391201;19;20011;-77
2022/06/19 05:18:15;;;;;;;3.10;1.27;;;;;;;;;;7389429;19;20011;-79
2022/06/19 05:20:41;;;;;;;5.00;1.23;;;;;;;;;;7393610;19;20508;-78
2022/06/19 05:23:08;;;;;;;5.35;1.27;;;;;;;;;;7390114;19;20017;-78
2022/06/19 05:25:34;;;;;;;3.97;1.10;;;;;;;;;;7390086;19;20425;-78
2022/06/19 05:28:00;;;;;;;5.00;1.30;;;;;;;;;;7390164;19;20006;-80
2022/06/19 05:30:26;;;;;;;5.25;1.67;;;;;;;;;;7387709;19;20038;-78
2022/06/19 05:32:51;;;;;;;3.25;1.30;;;;;;;;;;7392986;19;20398;-78
2022/06/19 05:35:17;;;;;;;3.40;1.05;;;;;;;;;;7394862;19;20013;-78
2022/06/19 05:37:42;;;;;;;5.25;1.60;;;;;;;;;;7391343;19;20039;-78
2022/06/19 05:40:09;;;;;;;3.65;1.67;;;;;;;;;;7391990;19;20125;-78
2022/06/19 05:42:35;;;;;;;7.80;4.05;;;;;;;;;;7390213;19;20816;-79
2022/06/19 05:45:00;;;;;;;4.53;1.73;;;;;;;;;;7395124;19;20002;-79
2022/06/19 05:47:26;;;;;;;3.65;1.60;;;;;;;;;;7388987;19;20007;-78
2022/06/19 05:49:51;;;;;;;4.05;1.25;;;;;;;;;;7394309;19;20009;-80
2022/06/19 05:52:19;;;;;;;4.90;1.50;;;;;;;;;;7389731;19;20007;-79
2022/06/19 05:54:46;;;;;;;3.70;1.10;;;;;;;;;;7394437;19;20526;-78
2022/06/19 05:57:11;;;;;;;7.55;1.50;;;;;;;;;;7394014;19;20061;-78
2022/06/19 05:59:37;;;;;;;4.70;1.58;;;;;;;;;;7396757;19;20006;-78
2022/06/19 06:02:03;;;;;;;4.40;1.73;;;;;;;;;;7395991;19;20401;-80
2022/06/19 06:04:28;;;;;;;3.05;1.60;;;;;;;;;;7394330;19;20034;-79
2022/06/19 06:06:53;;;;;;;16.67;7.07;;;;;;;;;;7396613;19;20007;-79
2022/06/19 06:09:19;;;;;;;6.82;2.90;;;;;;;;;;7392788;19;20025;-79
2022/06/19 06:11:45;;;;;;;6.95;2.00;;;;;;;;;;7396827;19;20005;-79
2022/06/19 06:14:11;;;;;;;7.90;1.80;;;;;;;;;;7396477;19;20006;-79
2022/06/19 06:16:36;;;;;;;5.50;1.80;;;;;;;;;;7391194;19;20616;-79
2022/06/19 06:19:01;;;;;;;10.43;1.60;;;;;;;;;;7396737;19;20006;-78
2022/06/19 06:21:27;;;;;;;11.68;1.90;;;;;;;;;;7395631;19;20470;-78
2022/06/19 06:23:54;;;;;;;7.18;1.63;;;;;;;;;;7392885;19;20509;-79
2022/06/19 06:26:24;;;;;;;8.77;1.52;;;;;;;;;;7394138;19;19999;-79
2022/06/19 06:28:52;;;;;;;6.93;1.77;;;;;;;;;;7397893;19;20025;-80
2022/06/19 06:31:19;;;;;;;9.40;2.15;;;;;;;;;;7394817;19;20062;-78
2022/06/19 06:33:46;;;;;;;8.27;1.70;;;;;;;;;;7391267;19;20002;-79
2022/06/19 06:36:11;;;;;;;9.70;1.95;;;;;;;;;;7391438;19;20414;-78
2022/06/19 06:38:37;;;;;;;6.78;1.67;;;;;;;;;;7391514;19;20019;-79
2022/06/19 06:41:11;;;;;;;7.07;1.95;;;;;;;;;;7396827;19;20026;-78
2022/06/19 06:43:38;;;;;;;7.93;1.92;;;;;;;;;;7393063;19;20014;-77
2022/06/19 06:46:09;;;;;;;9.73;1.95;;;;;;;;;;7388733;19;20014;-76
2022/06/19 06:48:35;;;;;;;6.63;1.77;;;;;;;;;;7391883;19;20048;-77
2022/06/19 06:51:05;;;;;;;9.65;2.10;;;;;;;;;;7392125;19;20111;-78
2022/06/19 06:53:30;;;;;;;13.10;1.90;;;;;;;;;;7391397;19;20038;-78
2022/06/19 06:55:56;;;;;;;6.38;2.53;;;;;;;;;;7392883;19;20002;-78
2022/06/19 06:58:22;;;;;;;19.13;2.00;;;;;;;;;;7393033;19;20011;-78
2022/06/19 07:00:47;;;;;;;6.65;2.05;;;;;;;;;;7390895;19;20485;-78
2022/06/19 07:03:12;;;;;;;10.18;2.08;;;;;;;;;;7389379;19;20011;-78
2022/06/19 07:05:38;;;;;;;8.68;2.95;;;;;;;;;;7390889;19;20009;-76
2022/06/19 07:08:05;;;;;;;14.48;2.38;;;;;;;;;;7392062;19;19999;-77
2022/06/19 07:10:30;;;;;;;10.88;2.47;;;;;;;;;;7388155;19;20031;-76
2022/06/19 07:12:55;;;;;;;7.60;2.10;;;;;;;;;;7390591;19;20006;-77
2022/06/19 07:15:21;;;;;;;10.50;2.00;;;;;;;;;;7392527;19;20022;-77
2022/06/19 07:17:47;;;;;;;9.85;2.15;;;;;;;;;;7385793;19;20026;-77
2022/06/19 07:20:12;;;;;;;7.32;1.98;;;;;;;;;;7387200;19;20014;-77
2022/06/19 07:22:38;;;;;;;7.70;2.28;;;;;;;;;;7388410;19;19998;-77
2022/06/19 07:25:05;;;;;;;9.90;2.17;;;;;;;;;;7390462;19;20014;-77
2022/06/19 07:27:31;;;;;;;9.65;2.10;;;;;;;;;;7389383;19;20039;-77
2022/06/19 07:29:56;;;;;;;7.88;2.00;;;;;;;;;;7388344;19;20010;-77
2022/06/19 07:32:21;;;;;;;10.93;2.00;;;;;;;;;;7388967;19;20070;-77
2022/06/19 07:34:47;;;;;;;6.35;2.03;;;;;;;;;;7390067;19;20095;-77
2022/06/19 07:37:13;;;;;;;7.95;1.90;;;;;;;;;;7386617;19;20007;-77
2022/06/19 07:39:39;;;;;;;9.38;2.30;;;;;;;;;;7387779;19;20390;-78
2022/06/19 07:42:08;;;;;;;16.25;2.85;;;;;;;;;;7390606;19;20445;-78
2022/06/19 07:44:34;;;;;;;8.98;2.58;;;;;;;;;;7391345;19;20364;-78
2022/06/19 07:52:28;;;;;;;9.95;1.90;;;;;;;;;;7390502;19;20074;-78
2022/06/19 07:54:53;;;;;;;7.63;2.22;;;;;;;;;;7392534;19;20002;-78
2022/06/19 07:57:19;;;;;;;11.68;2.83;;;;;;;;;;7390758;19;20023;-78
2022/06/19 07:59:44;;;;;;;9.95;2.70;;;;;;;;;;7392466;19;20020;-78
2022/06/19 08:02:09;;;;;;;6.15;2.15;;;;;;;;;;7387137;19;20319;-78
2022/06/19 08:04:35;;;;;;;5.60;2.20;;;;;;;;;;7394144;19;20945;-78
2022/06/19 08:07:00;;;;;;;11.70;2.15;;;;;;;;;;7391178;19;20006;-79
2022/06/19 08:09:26;;;;;;;12.88;2.17;;;;;;;;;;7388628;19;20013;-78
2022/06/19 08:11:51;;;;;;;8.77;2.25;;;;;;;;;;7386603;19;20007;-78
2022/06/19 08:14:16;;;;;;;7.00;2.40;;;;;;;;;;7391525;19;20021;-77
2022/06/19 08:16:42;;;;;;;13.57;2.75;;;;;;;;;;7386922;19;20006;-78
2022/06/19 08:19:07;;;;;;;9.13;2.60;;;;;;;;;;7388445;19;20030;-79
2022/06/19 08:21:33;;;;;;;8.57;2.67;;;;;;;;;;7386858;19;20054;-78
2022/06/19 08:23:58;;;;;;;13.73;2.70;;;;;;;;;;7389465;19;20006;-78
2022/06/19 08:26:23;;;;;;;9.45;2.72;;;;;;;;;;7391011;19;20013;-78
2022/06/19 08:31:23;;;;;;;12.32;2.67;;;;;;;;;;7386926;19;20151;-76
2022/06/19 08:33:48;;;;;;;15.05;2.60;;;;;;;;;;7388380;19;20145;-79
2022/06/19 08:36:14;;;;;;;9.10;2.10;;;;;;;;;;7390453;19;19998;-77
2022/06/19 08:38:44;;;;;;;7.10;2.40;;;;;;;;;;7387463;19;20010;-76
2022/06/19 08:41:31;;;;;;;12.80;2.45;;;;;;;;;;7389504;19;20017;-76
2022/06/19 08:44:27;;;;;;;10.70;2.80;;;;;;;;;;7388374;19;20006;-76
2022/06/19 08:47:12;;;;;;;11.20;2.75;;;;;;;;;;7385788;19;20014;-76
2022/06/19 08:49:45;;;;;;;;;;;;;;;;;;7390235;19;20471;-76
2022/06/19 08:52:34;;;;;;;11.35;2.45;;;;;;;;;;7389583;19;19922;-76
2022/06/19 08:55:07;;;;;;;13.30;3.08;;;;;;;;;;7387098;19;20115;-77
2022/06/19 08:57:41;;;;;;;15.10;2.78;;;;;;;;;;7386569;19;20010;-76
2022/06/19 09:00:39;;;;;;;13.18;2.40;;;;;;;;;;7388118;19;20077;-76
2022/06/19 09:05:36;;;;;;;10.80;2.50;;;;;;;;;;7381966;19;20010;-76
2022/06/19 09:06:44;;;;;;;13.82;2.65;;;;;;;;;;7389654;19;20035;-76
2022/06/19 09:09:17;;;;;;;6.25;2.25;;;;;;;;;;7387278;19;20042;-77
2022/06/19 09:12:14;;;;;;;13.88;2.85;;;;;;;;;;7387140;19;20035;-77
2022/06/19 09:14:51;;;;;;;7.13;2.38;;;;;;;;;;7385652;19;20021;-77
2022/06/19 09:17:46;;;;;;;11.02;2.70;;;;;;;;;;7385392;19;20003;-76
2022/06/19 09:20:29;;;;;;;5.93;2.72;;;;;;;;;;7389090;19;20011;-76
2022/06/19 09:23:28;;;;;;;7.82;2.20;;;;;;;;;;7388865;19;20002;-77
2022/06/19 09:26:00;;;;;;;16.23;3.13;;;;;;;;;;7395810;19;20356;-76
2022/06/19 09:28:36;;;;;;;12.13;2.83;;;;;;;;;;7395300;19;20621;-76
2022/06/19 09:31:38;;;;;;;9.32;2.53;;;;;;;;;;7392456;19;20017;-76
2022/06/19 09:34:39;;;;;;;13.32;2.38;;;;;;;;;;7396370;19;20018;-76
2022/06/19 09:37:25;;;;;;;10.18;2.60;;;;;;;;;;7387947;19;20040;-77
2022/06/19 09:40:03;;;;;;;12.88;3.38;;;;;;;;;;7393684;19;20006;-76
2022/06/19 09:42:48;;;;;;;13.60;2.58;;;;;;;;;;7388495;19;20055;-76
2022/06/19 09:45:28;;;;;;;15.90;2.92;;;;;;;;;;7392461;19;20011;-76
2022/06/19 09:48:10;;;;;;;7.70;2.78;;;;;;;;;;7394224;19;20006;-78
2022/06/19 09:50:42;;;;;;;10.25;2.67;;;;;;;;;;7393807;19;20044;-76
2022/06/19 09:53:14;;;;;;;16.10;2.83;;;;;;;;;;7395277;19;20013;-77
2022/06/19 09:55:50;;;;;;;10.07;2.17;;;;;;;;;;7393642;19;20007;-77
2022/06/19 09:58:19;;;;;;;7.30;2.47;;;;;;;;;;7392534;19;20006;-77
2022/06/19 10:00:48;;;;;;;8.00;2.70;;;;;;;;;;7391386;19;20022;-78
2022/06/19 10:03:22;;;;;;;6.53;2.30;;;;;;;;;;7393033;19;20103;-78
2022/06/19 10:05:57;;;;;;;;;;;;;;;;;;7395828;19;20454;-78
2022/06/19 10:08:40;;;;;;;11.70;2.38;;;;;;;;;;7386511;19;19929;-78
2022/06/19 10:11:13;;;;;;;10.13;2.67;;;;;;;;;;7386330;19;20037;-78
2022/06/19 10:13:38;;;;;;;7.45;2.40;;;;;;;;;;7389145;19;20003;-78
2022/06/19 10:16:16;;;;;;;10.60;2.58;;;;;;;;;;7391936;19;20013;-78
2022/06/19 10:18:46;;;;;;;7.85;2.85;;;;;;;;;;7392646;19;20010;-78
2022/06/19 10:24:22;;;;;;;8.27;2.60;;;;;;;;;;7396130;19;20449;-78
2022/06/19 10:27:05;;;;;;;13.38;2.78;;;;;;;;;;7395442;19;20014;-78
2022/06/19 10:30:03;;;;;;;5.55;2.53;;;;;;;;;;7394212;19;20446;-78
2022/06/19 10:32:47;;;;;;;12.38;3.00;;;;;;;;;;7392589;19;20021;-78
2022/06/19 10:35:27;;;;;;;10.48;3.22;;;;;;;;;;7393544;19;20010;-78
2022/06/19 10:38:22;;;;;;;11.57;2.67;;;;;;;;;;7395312;19;20038;-78
2022/06/19 10:41:06;;;;;;;6.95;3.03;;;;;;;;;;7394272;19;20050;-78
2022/06/19 10:44:23;;;;;;;15.38;3.15;;;;;;;;;;7392439;19;20469;-78
2022/06/19 10:47:05;;;;;;;12.30;2.53;;;;;;;;;;7391611;19;20093;-78
2022/06/19 10:49:46;;;;;;;10.45;3.00;;;;;;;;;;7394573;19;20091;-78
2022/06/19 10:52:35;;;;;;;7.80;2.47;;;;;;;;;;7395112;19;20007;-78
2022/06/19 10:55:58;;;;;;;10.40;3.05;;;;;;;;;;7396541;19;20014;-78
2022/06/19 10:58:26;;;;;;;9.30;2.70;;;;;;;;;;7391928;19;20014;-78
2022/06/19 11:00:55;;;;;;;8.18;3.08;;;;;;;;;;7393779;19;20006;-78
2022/06/19 11:06:32;;;;;;;6.03;2.60;;;;;;;;;;7394787;19;20027;-78
2022/06/19 11:09:02;;;;;;;7.50;2.75;;;;;;;;;;7394152;19;20029;-78
2022/06/19 11:11:30;;;;;;;6.28;2.80;;;;;;;;;;7395835;19;20026;-78
2022/06/19 11:14:09;;;;;;;6.07;2.60;;;;;;;;;;7394954;19;20018;-78
2022/06/19 11:16:55;;;;;;;7.80;2.60;;;;;;;;;;7392019;19;20026;-78
2022/06/19 11:19:31;;;;;;;8.25;2.88;;;;;;;;;;7391095;19;20006;-78
2022/06/19 11:21:56;;;;;;;9.15;2.83;;;;;;;;;;7393973;19;20465;-78
2022/06/19 11:24:27;;;;;;;14.55;3.00;;;;;;;;;;7393663;19;20130;-78
2022/06/19 11:26:52;;;;;;;10.10;3.08;;;;;;;;;;7393915;19;20118;-78
2022/06/19 11:29:21;;;;;;;9.65;3.13;;;;;;;;;;7394090;19;20023;-77
2022/06/19 11:32:18;;;;;;;7.75;2.53;;;;;;;;;;7393717;19;20066;-78
2022/06/19 11:35:00;;;;;;;9.63;2.92;;;;;;;;;;7392133;19;20470;-77
2022/06/19 11:37:32;;;;;;;3.92;2.38;;;;;;;;;;7390990;19;20007;-77
2022/06/19 11:39:58;;;;;;;12.23;3.25;;;;;;;;;;7390734;19;20014;-77
2022/06/19 11:42:48;;;;;;;8.55;2.70;;;;;;;;;;7391205;19;20378;-78
2022/06/19 11:45:13;;;;;;;8.25;3.05;;;;;;;;;;7391244;19;20010;-78
2022/06/19 11:48:10;;;;;;;12.82;3.58;;;;;;;;;;7392089;19;19995;-78
2022/06/19 11:50:48;;;;;;;9.90;2.67;;;;;;;;;;7388416;19;20032;-77
2022/06/19 11:53:19;;;;;;;9.73;2.75;;;;;;;;;;7390738;19;20070;-78
2022/06/19 11:55:50;;;;;;;7.55;3.10;;;;;;;;;;7391531;19;20466;-77
2022/06/19 11:58:29;;;;;;;5.97;2.53;;;;;;;;;;7391695;19;20095;-78
2022/06/19 12:01:05;;;;;;;11.23;2.88;;;;;;;;;;7391736;19;20082;-78
2022/06/19 12:03:44;;;;;;;7.15;2.72;;;;;;;;;;7390022;19;20010;-77
2022/06/19 12:06:11;;;;;;;7.97;2.33;;;;;;;;;;7390829;19;20438;-77
2022/06/19 12:08:46;;;;;;;13.15;2.63;;;;;;;;;;7391197;19;20006;-77
2022/06/19 12:11:12;;;;;;;13.25;3.67;;;;;;;;;;7390236;19;20010;-78
2022/06/19 12:13:39;;;;;;;7.47;2.97;;;;;;;;;;7390891;19;20175;-78
2022/06/19 12:16:20;;;;;;;9.95;3.50;;;;;;;;;;7389695;19;20009;-78
2022/06/19 12:18:46;;;;;;;9.02;3.20;;;;;;;;;;7390521;19;20433;-77
2022/06/19 12:21:20;;;;;;;7.85;2.60;;;;;;;;;;7391006;19;20497;-78
2022/06/19 12:24:03;;;;;;;4.90;2.72;;;;;;;;;;7391840;19;20003;-77
2022/06/19 12:26:35;;;;;;;10.82;3.10;;;;;;;;;;7390188;19;20006;-77
2022/06/19 12:29:10;;;;;;;10.00;3.13;;;;;;;;;;7390909;19;20025;-78
2022/06/19 12:31:38;;;;;;;7.43;2.70;;;;;;;;;;7390824;19;20032;-78
2022/06/19 12:34:39;;;;;;;10.05;3.10;;;;;;;;;;7391796;19;20006;-78
2022/06/19 12:37:23;;;;;;;5.75;2.90;;;;;;;;;;7390141;19;20033;-78
2022/06/19 12:39:48;;;;;;;9.73;2.83;;;;;;;;;;7391057;19;20010;-78
2022/06/19 12:42:46;;;;;;;11.75;2.85;;;;;;;;;;7389852;19;19998;-78
2022/06/19 12:45:37;;;;;;;8.20;3.20;;;;;;;;;;7391709;19;20021;-77
2022/06/19 12:48:39;;;;;;;7.55;3.25;;;;;;;;;;7389799;19;20529;-77
2022/06/19 12:51:09;;;;;;;8.88;2.80;;;;;;;;;;7391110;19;20460;-78
2022/06/19 12:54:35;;;;;;;5.93;3.53;;;;;;;;;;7389529;19;20010;-77
2022/06/19 12:57:18;;;;;;;6.03;3.05;;;;;;;;;;7385409;19;20006;-77
2022/06/19 12:59:47;;;;;;;8.50;3.57;;;;;;;;;;7397040;19;20047;-77
2022/06/19 13:02:29;;;;;;;7.38;3.25;;;;;;;;;;7393161;19;20014;-77
2022/06/19 13:05:20;;;;;;;8.85;2.80;;;;;;;;;;7397718;19;20011;-77
2022/06/19 13:08:12;;;;;;;10.52;3.55;;;;;;;;;;7396941;19;19999;-77
2022/06/19 13:11:08;;;;;;;7.10;3.28;;;;;;;;;;7396915;19;20073;-77
2022/06/19 13:13:45;;;;;;;6.47;3.10;;;;;;;;;;7393364;19;20037;-77
2022/06/19 13:16:45;;;;;;;6.95;2.97;;;;;;;;;;7394748;19;20014;-77
2022/06/19 13:19:24;;;;;;;7.75;3.40;;;;;;;;;;7393427;19;20006;-78
2022/06/19 13:22:07;;;;;;;6.55;3.45;;;;;;;;;;7395939;19;20082;-77
2022/06/19 13:24:56;;;;;;;6.77;3.07;;;;;;;;;;7396271;19;20007;-77
2022/06/19 13:27:41;;;;;;;8.82;2.65;;;;;;;;;;7390713;19;20026;-77
2022/06/19 13:30:32;;;;;;;11.00;3.20;;;;;;;;;;7397019;19;20014;-77
2022/06/19 13:33:22;;;;;;;4.30;2.78;;;;;;;;;;7394038;19;20003;-77
2022/06/19 13:35:51;;;;;;;8.85;3.15;;;;;;;;;;7395142;19;20039;-77
2022/06/19 13:38:31;;;;;;;5.18;3.17;;;;;;;;;;7396041;19;20013;-77
2022/06/19 13:41:23;;;;;;;8.35;3.30;;;;;;;;;;7397231;19;20027;-77
2022/06/19 13:44:06;;;;;;;11.95;3.60;;;;;;;;;;7397201;19;20074;-77
2022/06/19 13:46:55;;;;;;;7.70;3.13;;;;;;;;;;7394542;19;19998;-77
2022/06/19 13:49:44;;;;;;;5.70;3.00;;;;;;;;;;7396725;19;20007;-77
2022/06/19 13:52:57;;;;;;;9.25;3.42;;;;;;;;;;7393004;19;20318;-77
2022/06/19 13:55:48;;;;;;;10.73;3.00;;;;;;;;;;7393996;19;20048;-77
2022/06/19 13:58:40;;;;;;;9.07;2.70;;;;;;;;;;7395744;19;20354;-77
2022/06/19 14:01:27;;;;;;;12.88;3.75;;;;;;;;;;7394195;19;20018;-78
2022/06/19 14:07:30;;;;;;;7.82;2.53;;;;;;;;;;7392881;19;20007;-77
2022/06/19 14:10:13;;;;;;;8.25;3.30;;;;;;;;;;7391706;19;20035;-77
2022/06/19 14:12:49;;;;;;;9.68;3.45;;;;;;;;;;7394197;19;20124;-78
2022/06/19 14:15:45;;;;;;;12.88;3.15;;;;;;;;;;7395178;19;20007;-77
2022/06/19 14:18:13;;;;;;;9.88;3.15;;;;;;;;;;7395734;19;20015;-78
2022/06/19 14:20:50;;;;;;;9.93;3.22;;;;;;;;;;7396786;19;20003;-78
2022/06/19 14:23:27;;;;;;;7.57;2.90;;;;;;;;;;7393344;19;20021;-78
2022/06/19 14:26:29;;;;;;;5.40;2.88;;;;;;;;;;7394359;19;20535;-78
2022/06/19 14:29:28;;;;;;;10.82;3.33;;;;;;;;;;7394341;19;20019;-78
2022/06/19 14:31:55;;;;;;;9.35;3.70;;;;;;;;;;7391360;19;20014;-77
2022/06/19 14:34:47;;;;;;;16.15;3.50;;;;;;;;;;7394644;19;20025;-77
2022/06/19 14:37:28;;;;;;;10.23;3.13;;;;;;;;;;7394952;19;20046;-77
2022/06/19 14:39:56;;;;;;;11.73;3.00;;;;;;;;;;7394526;19;20423;-78
2022/06/19 14:42:22;;;;;;;7.00;3.53;;;;;;;;;;7393094;19;20010;-77
2022/06/19 14:45:02;;;;;;;7.75;3.28;;;;;;;;;;7394049;19;20009;-77
2022/06/19 14:47:42;;;;;;;8.55;3.15;;;;;;;;;;7391851;19;20010;-78
2022/06/19 14:50:23;;;;;;;9.60;3.25;;;;;;;;;;7393659;19;20078;-77
2022/06/19 14:53:13;;;;;;;8.98;3.85;;;;;;;;;;7393970;19;20010;-78
2022/06/19 14:55:44;;;;;;;9.15;3.15;;;;;;;;;;7395827;19;19998;-77
2022/06/19 14:58:25;;;;;;;10.73;2.85;;;;;;;;;;7392730;19;20010;-78
2022/06/19 15:01:00;;;;;;;6.40;2.53;;;;;;;;;;7392945;19;20062;-78
2022/06/19 15:03:31;;;;;;;8.80;4.70;;;;;;;;;;7392883;19;20118;-77
2022/06/19 15:06:05;;;;;;;11.05;3.53;;;;;;;;;;7395442;19;20011;-77
2022/06/19 15:08:36;;;;;;;6.15;3.08;;;;;;;;;;7394112;19;20053;-77
2022/06/19 15:11:05;;;;;;;12.70;3.42;;;;;;;;;;7395501;19;20468;-78
2022/06/19 15:13:37;;;;;;;8.63;2.75;;;;;;;;;;7392648;19;20031;-77
2022/06/19 15:16:20;;;;;;;8.10;2.45;;;;;;;;;;7394139;19;20524;-78
2022/06/19 15:18:53;;;;;;;12.25;3.90;;;;;;;;;;7393631;19;20003;-77
2022/06/19 15:21:29;;;;;;;8.00;2.83;;;;;;;;;;7393626;19;20021;-77
2022/06/19 15:23:55;;;;;;;7.32;2.83;;;;;;;;;;7393715;19;20014;-77
2022/06/19 15:26:21;;;;;;;5.45;2.75;;;;;;;;;;7393624;19;20496;-77
2022/06/19 15:28:49;;;;;;;8.47;5.43;;;;;;;;;;7394065;19;20014;-77
2022/06/19 15:31:23;;;;;;;9.55;3.15;;;;;;;;;;7393114;19;20712;-77
2022/06/19 15:34:02;;;;;;;10.23;3.30;;;;;;;;;;7392912;19;20011;-77